Time;durP1;ratioP1;P1;durP2;ratioP2;P2;SDS_P1;SDS_P2;PMS_P1;PMS_P2;Temp;Humidity;BMP_temperature;BMP_pressure;BME280_temperature;BME280_humidity;BME280_pressure;Samples;Min_cycle;Max_cycle;Signal;HPM_P1;HPM_P2
2023/09/08 00:02:28;;;;;;;7.78;6.57;;;;;;;17.39;100.00;101533.44;4973974;28;20035;-95
2023/09/08 00:04:54;;;;;;;7.03;5.88;;;;;;;17.48;100.00;101544.47;4987763;28;20090;-96
2023/09/08 00:07:20;;;;;;;10.45;6.88;;;;;;;17.35;100.00;101533.19;4974002;28;20103;-95
2023/09/08 00:09:46;;;;;;;8.80;6.53;;;;;;;17.30;100.00;101521.63;4973905;28;20045;-95
2023/09/08 00:12:12;;;;;;;11.05;6.28;;;;;;;17.29;100.00;101528.94;4975762;28;20047;-96
2023/09/08 00:14:37;;;;;;;9.15;6.28;;;;;;;17.42;100.00;101562.69;4974585;28;20035;-96
2023/09/08 00:17:04;;;;;;;10.40;6.80;;;;;;;17.24;100.00;101537.13;4972837;28;20579;-96
2023/09/08 00:19:30;;;;;;;6.97;6.28;;;;;;;17.38;100.00;101562.44;4975631;28;20038;-96
2023/09/08 00:21:56;;;;;;;10.98;6.80;;;;;;;17.45;100.00;101581.03;4977294;28;20035;-95
2023/09/08 00:24:22;;;;;;;12.70;6.50;;;;;;;17.20;100.00;101541.47;4976927;29;20059;-96
2023/09/08 00:26:48;;;;;;;8.50;6.93;;;;;;;17.21;100.00;101553.94;4938959;28;1133118;-96
2023/09/08 00:29:13;;;;;;;8.87;6.80;;;;;;;17.37;100.00;101577.06;4978454;28;20024;-95
2023/09/08 00:31:39;;;;;;;9.25;6.65;;;;;;;17.03;100.00;101544.63;4975901;29;20087;-96
2023/09/08 00:34:06;;;;;;;14.23;6.70;;;;;;;17.05;100.00;101545.94;4978016;28;20027;-95
2023/09/08 00:36:32;;;;;;;9.48;6.63;;;;;;;17.02;100.00;101551.94;4977115;28;20015;-96
2023/09/08 00:38:57;;;;;;;8.35;6.22;;;;;;;17.03;100.00;101552.75;4979199;28;20031;-95
2023/09/08 00:41:23;;;;;;;7.13;6.40;;;;;;;17.06;100.00;101563.81;4976067;28;20050;-95
2023/09/08 00:43:49;;;;;;;7.40;6.07;;;;;;;16.78;100.00;101528.28;4980021;28;20026;-96
2023/09/08 00:46:16;;;;;;;7.97;6.70;;;;;;;16.78;100.00;101541.81;4978583;28;20038;-96
2023/09/08 00:48:42;;;;;;;7.32;6.07;;;;;;;16.75;100.00;101533.44;4992896;28;20038;-95
2023/09/08 00:51:09;;;;;;;8.07;6.20;;;;;;;17.04;100.00;101579.53;4979640;28;20023;-95
2023/09/08 00:53:35;;;;;;;9.10;6.17;;;;;;;16.78;100.00;101541.81;4979871;28;20019;-96
2023/09/08 00:56:02;;;;;;;7.25;6.55;;;;;;;16.72;100.00;101532.13;4980491;28;20034;-95
2023/09/08 00:58:29;;;;;;;11.35;6.65;;;;;;;16.67;100.00;101529.44;4980786;28;20087;-96
2023/09/08 01:00:57;;;;;;;7.85;6.45;;;;;;;16.87;100.00;101560.13;4981006;28;20067;-96
2023/09/08 01:03:23;;;;;;;9.13;6.40;;;;;;;16.69;100.00;101529.16;4980895;28;20042;-96
2023/09/08 01:05:49;;;;;;;12.15;6.72;;;;;;;16.70;100.00;101545.09;4980882;28;20070;-95
2023/09/08 01:08:15;;;;;;;11.75;6.57;;;;;;;16.58;100.00;101536.56;4979347;28;20050;-94
2023/09/08 01:10:42;;;;;;;7.57;6.33;;;;;;;16.64;100.00;101554.34;4995359;28;20011;-95
2023/09/08 01:13:07;;;;;;;9.10;6.70;;;;;;;16.47;100.00;101528.47;4995507;28;20099;-96
2023/09/08 01:15:33;;;;;;;8.98;6.75;;;;;;;16.41;100.00;101529.63;4979838;28;20031;-96
2023/09/08 01:17:58;;;;;;;7.73;6.63;;;;;;;16.38;100.00;101532.88;4979840;28;20090;-96
2023/09/08 01:20:49;;;;;;;9.75;6.97;;;;;;;16.38;100.00;101532.88;4980085;28;20038;-96
2023/09/08 01:23:52;;;;;;;10.70;7.53;;;;;;;16.59;100.00;101576.03;4980276;28;20038;-96
2023/09/08 01:26:20;;;;;;;8.93;7.20;;;;;;;16.24;100.00;101521.88;4979544;28;20283;-96
2023/09/08 01:28:49;;;;;;;8.02;6.53;;;;;;;16.29;100.00;101531.84;4979060;29;20033;-95
2023/09/08 01:31:15;;;;;;;8.93;7.20;;;;;;;16.25;100.00;101536.22;4979557;28;20023;-96
2023/09/08 01:33:41;;;;;;;9.13;6.75;;;;;;;16.20;100.00;101534.31;4978801;28;20091;-95
2023/09/08 01:36:10;;;;;;;8.38;6.78;;;;;;;16.10;100.00;101526.28;4994780;28;20027;-96
2023/09/08 01:38:35;;;;;;;7.88;7.07;;;;;;;16.19;100.00;101547.06;4978624;28;20042;-96
2023/09/08 01:41:01;;;;;;;9.20;7.60;;;;;;;16.30;100.00;101560.50;4979996;28;20023;-96
2023/09/08 01:43:27;;;;;;;9.43;7.38;;;;;;;16.01;100.00;101526.84;4980768;28;20038;-96
2023/09/08 01:45:53;;;;;;;9.45;7.25;;;;;;;16.01;100.00;101536.88;4979843;28;20015;-95
2023/09/08 01:48:20;;;;;;;10.97;7.80;;;;;;;15.99;100.00;101541.75;4980581;28;20037;-94
2023/09/08 01:50:47;;;;;;;10.23;8.07;;;;;;;16.14;100.00;101562.50;4980194;28;20016;-96
2023/09/08 01:53:13;;;;;;;11.73;8.15;;;;;;;15.95;100.00;101535.25;4978287;28;20095;-95
2023/09/08 01:55:39;;;;;;;12.45;7.90;;;;;;;15.91;100.00;101526.91;4978905;28;20071;-96
2023/09/08 01:58:09;;;;;;;14.50;7.67;;;;;;;16.16;100.00;101569.22;4977749;29;20035;-96
2023/09/08 02:00:35;;;;;;;11.07;8.20;;;;;;;16.09;100.00;101571.41;4978419;28;20023;-96
2023/09/08 02:03:00;;;;;;;8.73;7.77;;;;;;;16.11;100.00;101571.16;4979709;28;20031;-96
2023/09/08 02:05:26;;;;;;;12.00;7.88;;;;;;;15.97;100.00;101552.84;4977955;28;20055;-95
2023/09/08 02:07:52;;;;;;;11.77;7.88;;;;;;;15.76;100.00;101522.31;4979093;28;20023;-96
2023/09/08 02:10:18;;;;;;;12.17;8.00;;;;;;;15.79;100.00;101529.09;4979067;28;20015;-96
2023/09/08 02:12:43;;;;;;;10.55;8.10;;;;;;;15.74;100.00;101530.72;4978592;28;20030;-96
2023/09/08 02:15:11;;;;;;;9.47;7.80;;;;;;;15.65;100.00;101513.44;4978286;28;20026;-96
2023/09/08 02:17:36;;;;;;;9.45;7.68;;;;;;;15.71;100.00;101519.63;4977687;28;20075;-95
2023/09/08 02:20:03;;;;;;;11.37;8.17;;;;;;;15.73;100.00;101536.38;4977582;29;20059;-96
2023/09/08 02:25:50;;;;;;;12.70;8.18;;;;;;;15.66;100.00;101533.19;4977797;28;20118;-96
2023/09/08 02:28:16;;;;;;;11.97;8.00;;;;;;;15.76;100.00;101546.66;4977550;28;20023;-96
2023/09/08 02:30:41;;;;;;;9.97;8.00;;;;;;;15.50;100.00;101514.31;4978416;28;20333;-96
2023/09/08 02:33:07;;;;;;;11.20;8.27;;;;;;;15.78;100.00;101558.00;4978398;28;20054;-95
2023/09/08 02:35:37;;;;;;;12.10;8.05;;;;;;;15.56;100.00;101517.81;4978412;28;20031;-96
2023/09/08 02:38:03;;;;;;;13.97;8.27;;;;;;;15.68;100.00;101549.94;4978100;28;20027;-96
2023/09/08 02:40:28;;;;;;;13.77;8.93;;;;;;;15.37;100.00;101509.47;4977496;28;20295;-96
2023/09/08 02:42:54;;;;;;;11.27;8.50;;;;;;;15.37;100.00;101514.88;4977360;28;20074;-96
2023/09/08 02:45:20;;;;;;;10.82;8.20;;;;;;;15.33;100.00;101511.13;4992876;28;20042;-96
2023/09/08 02:47:45;;;;;;;12.50;7.87;;;;;;;15.29;100.00;101508.97;4977397;28;20035;-95
2023/09/08 02:50:11;;;;;;;11.90;8.38;;;;;;;15.21;100.00;101506.00;4977593;28;20031;-96
2023/09/08 02:52:36;;;;;;;12.27;8.50;;;;;;;15.25;100.00;101512.47;4977672;28;20027;-96
2023/09/08 02:55:02;;;;;;;9.50;7.82;;;;;;;15.24;100.00;101517.06;4977740;28;20030;-96
2023/09/08 02:57:27;;;;;;;11.13;8.17;;;;;;;15.21;100.00;101514.91;4978275;28;20015;-96
2023/09/08 02:59:56;;;;;;;9.63;8.33;;;;;;;15.14;100.00;101514.41;4978667;28;20019;-96
2023/09/08 03:02:22;;;;;;;9.07;7.80;;;;;;;15.31;100.00;101537.59;4978488;28;20026;-96
2023/09/08 03:04:48;;;;;;;12.77;7.93;;;;;;;15.14;100.00;101519.78;4977654;28;20019;-96
2023/09/08 03:07:15;;;;;;;11.60;8.48;;;;;;;15.08;100.00;101510.06;4977159;28;20022;-96
2023/09/08 03:09:41;;;;;;;10.98;8.15;;;;;;;15.07;100.00;101511.16;4976900;28;20139;-96
2023/09/08 03:12:16;;;;;;;9.77;7.87;;;;;;;15.11;100.00;101515.72;4978508;28;20113;-96
2023/09/08 03:14:41;;;;;;;14.43;8.25;;;;;;;15.19;100.00;101527.06;4981569;28;20028;-96
2023/09/08 03:17:07;;;;;;;11.30;8.13;;;;;;;15.04;100.00;101517.91;4981925;28;20376;-96
2023/09/08 03:19:33;;;;;;;10.55;8.82;;;;;;;15.21;100.00;101549.19;4980106;29;20023;-95
2023/09/08 03:21:58;;;;;;;8.73;7.73;;;;;;;15.07;100.00;101522.75;4982025;28;20042;-96
2023/09/08 03:24:24;;;;;;;9.80;8.52;;;;;;;15.13;100.00;101540.56;4979000;29;20028;-96
2023/09/08 03:26:49;;;;;;;12.53;8.60;;;;;;;15.20;100.00;101552.97;4979112;28;20058;-96
2023/09/08 03:29:20;;;;;;;9.50;8.50;;;;;;;14.88;100.00;101513.59;4979743;28;20043;-96
2023/09/08 03:31:46;;;;;;;9.10;8.20;;;;;;;15.15;100.00;101556.50;4980954;28;20078;-95
2023/09/08 03:34:13;;;;;;;10.80;8.50;;;;;;;14.84;100.00;101514.13;4978712;29;20152;-96
2023/09/08 03:36:46;;;;;;;11.43;8.77;;;;;;;15.02;100.00;101532.72;4979016;28;20050;-96
2023/09/08 03:39:11;;;;;;;11.70;8.23;;;;;;;14.83;100.00;101506.28;4977745;28;20282;-96
2023/09/08 03:41:37;;;;;;;10.65;8.18;;;;;;;14.81;100.00;101508.44;4976805;28;20023;-95
2023/09/08 03:44:03;;;;;;;11.53;8.33;;;;;;;14.89;100.00;101525.97;4975747;28;20027;-96
2023/09/08 03:46:28;;;;;;;12.70;8.15;;;;;;;14.71;100.00;101503.84;4975759;28;20059;-96
2023/09/08 03:48:58;;;;;;;12.77;8.60;;;;;;;14.99;100.00;101551.09;4978138;28;20042;-96
2023/09/08 03:51:27;;;;;;;11.67;8.40;;;;;;;14.76;100.00;101500.38;4979360;28;20314;-95
2023/09/08 03:53:53;;;;;;;10.20;8.23;;;;;;;15.00;100.00;101538.41;4980043;28;20015;-96
2023/09/08 03:56:20;;;;;;;9.82;8.68;;;;;;;14.79;100.00;101518.72;4978528;28;20038;-96
2023/09/08 03:58:46;;;;;;;11.00;8.48;;;;;;;14.69;100.00;101509.53;4979019;28;20066;-95
2023/09/08 04:01:11;;;;;;;12.75;8.48;;;;;;;14.64;100.00;101497.91;4980152;28;20027;-95
2023/09/08 04:03:40;;;;;;;10.70;8.40;;;;;;;14.68;100.00;101504.41;4980270;28;20042;-96
2023/09/08 04:06:06;;;;;;;9.98;8.40;;;;;;;14.90;100.00;101549.19;4979059;28;20027;-95
2023/09/08 04:08:31;;;;;;;9.53;7.80;;;;;;;14.62;100.00;101498.16;4977664;28;20394;-95
2023/09/08 04:10:57;;;;;;;11.60;8.10;;;;;;;14.72;100.00;101513.56;4978829;28;20038;-96
2023/09/08 04:13:22;;;;;;;13.60;8.50;;;;;;;14.67;100.00;101510.88;4979069;28;20028;-96
2023/09/08 04:15:48;;;;;;;10.73;8.90;;;;;;;14.52;100.00;101490.06;4980080;28;20071;-95
2023/09/08 04:18:14;;;;;;;12.77;8.93;;;;;;;14.53;100.00;101494.38;4979844;28;20031;-96
2023/09/08 04:20:39;;;;;;;10.20;8.50;;;;;;;14.83;100.00;101541.38;4979111;28;20051;-96
2023/09/08 04:23:07;;;;;;;11.43;8.90;;;;;;;14.56;100.00;101491.16;4977074;28;20058;-95
2023/09/08 04:25:34;;;;;;;10.52;8.80;;;;;;;14.76;100.00;101520.06;4977590;28;20054;-95
2023/09/08 04:28:09;;;;;;;10.32;8.73;;;;;;;14.59;100.00;101492.50;4977908;28;20108;-96
2023/09/08 04:30:35;;;;;;;12.50;9.13;;;;;;;14.71;100.00;101508.47;4978127;29;20027;-96
2023/09/08 04:33:01;;;;;;;11.23;8.75;;;;;;;14.48;100.00;101480.91;4978052;28;20027;-96
2023/09/08 04:35:30;;;;;;;10.57;8.87;;;;;;;14.66;100.00;101501.94;4976698;28;20171;-94
2023/09/08 04:37:55;;;;;;;10.80;9.25;;;;;;;14.64;100.00;101497.91;4972192;28;20122;-95
2023/09/08 04:40:21;;;;;;;16.48;9.88;;;;;;;14.47;100.00;101476.56;4980684;28;20078;-96
2023/09/08 04:42:46;;;;;;;13.90;9.73;;;;;;;14.79;100.00;101532.22;4974874;28;20062;-96
2023/09/08 04:45:13;;;;;;;11.80;9.70;;;;;;;14.54;100.00;101499.50;4971453;28;20042;-96
2023/09/08 04:47:39;;;;;;;15.83;9.83;;;;;;;14.48;100.00;101495.19;4972629;29;20142;-96
2023/09/08 04:50:05;;;;;;;12.10;9.80;;;;;;;14.76;100.00;101535.44;4973500;28;20285;-95
2023/09/08 04:52:34;;;;;;;13.15;9.15;;;;;;;14.46;100.00;101488.44;4973392;28;20053;-96
2023/09/08 04:54:59;;;;;;;14.20;9.43;;;;;;;14.43;100.00;101489.78;4975839;28;20031;-95
2023/09/08 04:57:25;;;;;;;12.43;10.13;;;;;;;14.75;100.00;101537.31;4967411;28;20031;-96
2023/09/08 04:59:53;;;;;;;13.98;10.10;;;;;;;14.51;100.00;101499.25;4968435;28;20063;-95
2023/09/08 05:02:19;;;;;;;15.52;10.25;;;;;;;14.55;100.00;101508.41;4978099;28;20027;-96
2023/09/08 05:04:45;;;;;;;20.65;10.88;;;;;;;14.51;100.00;101515.41;4979533;28;20023;-96
2023/09/08 05:07:13;;;;;;;15.20;10.37;;;;;;;14.41;100.00;101483.84;4976583;28;20027;-96
2023/09/08 05:09:38;;;;;;;13.95;10.10;;;;;;;14.47;100.00;101498.16;4977177;28;20099;-96
2023/09/08 05:12:05;;;;;;;16.27;10.85;;;;;;;14.57;100.00;101508.13;4977381;28;20086;-96
2023/09/08 05:14:31;;;;;;;14.80;10.52;;;;;;;14.54;100.00;101507.59;4977499;28;20050;-96
2023/09/08 05:17:03;;;;;;;13.43;10.30;;;;;;;14.49;100.00;101501.38;4974551;28;20027;-96
2023/09/08 05:19:28;;;;;;;13.70;10.45;;;;;;;14.81;100.00;101551.63;4976290;28;20023;-96
2023/09/08 05:21:55;;;;;;;13.32;10.32;;;;;;;14.67;100.00;101508.97;4976821;28;20038;-96
2023/09/08 05:24:21;;;;;;;15.10;10.80;;;;;;;14.56;100.00;101501.13;4977387;28;20022;-96
2023/09/08 05:26:47;;;;;;;15.80;10.10;;;;;;;14.61;100.00;101501.13;4975107;28;20271;-96
2023/09/08 05:29:13;;;;;;;16.13;10.93;;;;;;;14.78;100.00;101519.81;4972757;28;20030;-96
2023/09/08 05:31:38;;;;;;;17.55;11.38;;;;;;;15.06;100.00;101558.09;4972731;28;20011;-96
2023/09/08 05:34:04;;;;;;;16.10;10.97;;;;;;;14.78;100.00;101506.31;4973701;28;20031;-96
2023/09/08 05:36:35;;;;;;;14.63;10.90;;;;;;;14.91;100.00;101530.06;4973674;28;20459;-96
2023/09/08 05:39:02;;;;;;;15.43;10.85;;;;;;;14.99;100.00;101523.31;4975466;29;20038;-96
2023/09/08 05:41:28;;;;;;;17.20;11.55;;;;;;;14.93;100.00;101521.69;4970512;28;20031;-96
2023/09/08 05:44:04;;;;;;;15.57;11.80;;;;;;;14.96;100.00;101513.03;4976885;28;20023;-96
2023/09/08 05:46:30;;;;;;;15.00;11.60;;;;;;;15.23;100.00;101550.53;4976872;28;20102;-96
2023/09/08 05:48:55;;;;;;;15.97;12.30;;;;;;;15.07;100.00;101513.84;4977820;28;20286;-96
2023/09/08 05:51:22;;;;;;;14.33;11.00;;;;;;;15.13;100.00;101523.56;4978568;28;20066;-96
2023/09/08 05:53:49;;;;;;;15.23;10.82;;;;;;;15.26;100.00;101531.09;5107232;23;20047;-96
2023/09/08 05:56:14;;;;;;;16.88;11.30;;;;;;;15.50;100.00;101562.94;4976008;28;20049;-96
2023/09/08 05:58:42;;;;;;;16.35;11.32;;;;;;;15.54;100.00;101560.50;4978370;28;20027;-96
2023/09/08 06:01:08;;;;;;;14.48;11.18;;;;;;;15.59;100.00;101563.19;4976507;28;20015;-96
2023/09/08 06:03:34;;;;;;;17.00;12.23;;;;;;;15.57;100.00;101549.94;4973417;29;20041;-96
2023/09/08 06:05:59;;;;;;;15.70;12.63;;;;;;;15.58;100.00;101546.16;4971908;28;20027;-96
2023/09/08 06:08:28;;;;;;;15.03;11.93;;;;;;;15.55;100.00;101527.78;4973964;28;20047;-96
2023/09/08 06:10:53;;;;;;;19.98;12.43;;;;;;;15.87;100.00;101574.47;4971742;29;20051;-96
2023/09/08 06:13:19;;;;;;;18.15;12.30;;;;;;;15.67;100.00;101524.78;4974471;28;20071;-96
2023/09/08 06:15:44;;;;;;;13.87;12.23;;;;;;;15.72;100.00;101526.66;4977024;28;20046;-96
2023/09/08 06:18:11;;;;;;;14.37;11.53;;;;;;;16.10;100.00;101575.72;4978024;28;20031;-96
2023/09/08 06:20:37;;;;;;;17.50;12.15;;;;;;;15.98;100.00;101546.31;4978423;28;20022;-96
2023/09/08 06:23:03;;;;;;;16.90;11.77;;;;;;;16.20;100.00;101575.72;4978146;28;20051;-95
2023/09/08 06:25:28;;;;;;;15.80;12.03;;;;;;;16.08;100.00;101531.16;4979102;28;20067;-96
2023/09/08 06:27:54;;;;;;;14.43;11.82;;;;;;;16.18;100.00;101537.31;4977223;28;20028;-96
2023/09/08 06:30:19;;;;;;;17.47;11.83;;;;;;;16.25;100.00;101544.31;4977409;28;20019;-96
2023/09/08 06:32:46;;;;;;;17.25;12.02;;;;;;;16.34;100.00;101542.63;4973555;28;20120;-96
2023/09/08 06:35:12;;;;;;;15.63;11.70;;;;;;;16.51;100.00;101553.09;4973934;28;20035;-96
2023/09/08 06:37:39;;;;;;;14.83;11.50;;;;;;;16.47;100.00;101539.31;4975111;28;20281;-96
2023/09/08 06:40:05;;;;;;;13.65;11.00;;;;;;;16.60;100.00;101540.56;4973421;28;20131;-96
2023/09/08 06:42:31;;;;;;;14.82;11.55;;;;;;;16.96;100.00;101582.84;4971414;28;20027;-96
2023/09/08 06:44:57;;;;;;;16.63;11.57;;;;;;;16.78;100.00;101541.00;4970177;28;20026;-96
2023/09/08 06:47:22;;;;;;;15.80;10.93;;;;;;;17.06;100.00;101577.34;4970276;29;20029;-96
2023/09/08 06:49:48;;;;;;;14.57;11.27;;;;;;;17.20;100.00;101590.22;4974345;28;20095;-96
2023/09/08 06:52:41;;;;;;;15.25;11.07;;;;;;;17.04;100.00;101547.03;4973144;28;20351;-96
2023/09/08 06:55:07;;;;;;;15.02;12.07;;;;;;;17.41;100.00;101580.81;4973322;28;20043;-96
2023/09/08 06:57:35;;;;;;;21.88;12.25;;;;;;;17.36;100.00;101567.31;4971927;28;20046;-96
2023/09/08 07:00:01;;;;;;;17.23;11.67;;;;;;;17.38;100.00;101550.81;4973949;28;20027;-96
2023/09/08 07:02:28;;;;;;;16.13;12.00;;;;;;;17.44;100.00;101541.50;5250213;23;20337;-96
2023/09/08 07:04:54;;;;;;;16.00;11.52;;;;;;;17.63;100.00;101565.16;4969832;28;20027;-96
2023/09/08 07:07:20;;;;;;;15.80;11.97;;;;;;;17.70;100.00;101562.91;4971627;28;20019;-96
2023/09/08 07:09:46;;;;;;;13.53;11.40;;;;;;;17.80;100.00;101556.56;4970886;28;20334;-96
2023/09/08 07:12:11;;;;;;;16.90;11.95;;;;;;;18.12;100.00;101599.34;4977618;28;20046;-96
2023/09/08 07:14:38;;;;;;;15.70;12.07;;;;;;;17.99;100.00;101562.88;4971953;28;20015;-96
2023/09/08 07:17:03;;;;;;;13.37;11.43;;;;;;;18.09;100.00;101561.13;4975060;28;20026;-95
2023/09/08 07:19:29;;;;;;;16.50;12.10;;;;;;;18.48;100.00;101597.25;4974014;28;20354;-96
2023/09/08 07:22:00;;;;;;;15.93;12.50;;;;;;;18.41;100.00;101578.63;4968589;28;20035;-96
2023/09/08 07:24:26;;;;;;;15.83;12.13;;;;;;;18.40;100.00;101560.72;4968477;28;20386;-96
2023/09/08 07:26:52;;;;;;;15.57;11.80;;;;;;;18.77;100.00;101603.31;4971933;28;20286;-96
2023/09/08 07:29:17;;;;;;;18.13;12.10;;;;;;;18.71;100.00;101563.81;4967695;28;20118;-96
2023/09/08 07:31:43;;;;;;;15.53;11.67;;;;;;;19.10;100.00;101608.00;4972869;29;20279;-96
2023/09/08 07:34:09;;;;;;;18.65;11.93;;;;;;;19.04;100.00;101585.56;4971599;28;20035;-96
2023/09/08 07:36:36;;;;;;;14.27;11.90;;;;;;;19.09;100.00;101587.38;4969477;28;20015;-96
2023/09/08 07:39:02;;;;;;;15.90;12.45;;;;;;;19.20;100.00;101583.38;4969376;29;20106;-96
2023/09/08 07:41:28;;;;;;;15.95;11.82;;;;;;;19.21;100.00;101563.25;4969591;28;20031;-96
2023/09/08 07:43:53;;;;;;;17.23;12.20;;;;;;;19.45;100.00;101577.78;4970546;28;20046;-96
2023/09/08 07:46:19;;;;;;;13.77;11.70;;;;;;;19.49;100.00;101559.78;4971039;28;20043;-96
2023/09/08 07:48:44;;;;;;;19.45;11.48;;;;;;;19.65;100.00;101579.34;4970582;28;20035;-96
2023/09/08 07:51:10;;;;;;;17.57;12.20;;;;;;;19.92;100.00;101583.19;4974127;28;20011;-96
2023/09/08 07:53:38;;;;;;;18.08;12.15;;;;;;;19.82;100.00;101549.63;4973026;28;20039;-96
2023/09/08 07:56:06;;;;;;;14.70;11.40;;;;;;;19.95;100.00;101560.81;4972720;28;20035;-96
2023/09/08 07:58:32;;;;;;;15.57;11.97;;;;;;;20.07;100.00;101566.56;4976897;28;20278;-96
2023/09/08 08:00:57;;;;;;;13.90;11.38;;;;;;;20.40;100.00;101601.78;4979466;28;20035;-96
2023/09/08 08:03:23;;;;;;;14.80;11.20;;;;;;;20.31;100.00;101576.38;4979665;28;20027;-96
2023/09/08 08:05:48;;;;;;;17.60;12.40;;;;;;;20.30;100.00;101553.00;4980235;28;20012;-96
2023/09/08 08:08:14;;;;;;;13.10;11.20;;;;;;;20.48;100.00;101553.13;4977952;29;20022;-96
2023/09/08 08:10:41;;;;;;;13.43;10.70;;;;;;;20.59;100.00;101557.25;4979667;28;20019;-95
2023/09/08 08:13:07;;;;;;;11.95;10.48;;;;;;;20.75;100.00;101570.50;4978954;28;20027;-96
2023/09/08 08:15:37;;;;;;;16.10;10.80;;;;;;;20.73;100.00;101559.91;4978379;28;20023;-96
2023/09/08 08:18:05;;;;;;;13.60;11.35;;;;;;;20.89;100.00;101563.09;4981346;28;20061;-96
2023/09/08 08:48:56;;;;;;;9.97;7.53;;;;;;;22.13;100.00;101569.88;4990151;28;20336;-96
2023/09/08 08:51:24;;;;;;;11.18;8.23;;;;;;;22.49;100.00;101610.56;4994705;28;20026;-96
2023/09/08 08:53:49;;;;;;;9.90;7.43;;;;;;;22.38;100.00;101573.75;4994917;28;20033;-96
2023/09/08 08:56:16;;;;;;;11.00;7.88;;;;;;;22.58;100.00;101569.59;4999817;28;20019;-96
2023/09/08 08:58:42;;;;;;;9.50;7.53;;;;;;;22.87;100.00;101591.91;5000437;28;20037;-96
2023/09/08 09:01:11;;;;;;;12.07;7.63;;;;;;;22.86;99.39;101573.91;4998885;28;20289;-96
2023/09/08 09:03:40;;;;;;;11.23;7.25;;;;;;;22.90;99.87;101566.69;4999691;28;20091;-95
2023/09/08 09:06:05;;;;;;;12.60;7.57;;;;;;;23.29;99.26;101608.59;4999526;28;20034;-96
2023/09/08 09:08:32;;;;;;;10.60;7.70;;;;;;;23.08;97.13;101565.53;4999344;28;20014;-96
2023/09/08 09:10:57;;;;;;;11.55;7.47;;;;;;;23.32;97.29;101586.06;4998749;28;20023;-96
2023/09/08 09:13:23;;;;;;;11.90;6.90;;;;;;;23.46;98.13;101574.94;4999478;28;20027;-96
2023/09/08 09:15:50;;;;;;;7.90;6.83;;;;;;;23.51;96.46;101574.72;4999491;28;20058;-96
2023/09/08 09:18:15;;;;;;;8.20;7.15;;;;;;;23.79;96.41;101598.91;4999243;28;20019;-96
2023/09/08 09:20:54;;;;;;;8.38;7.47;;;;;;;23.79;97.04;101571.56;4998377;28;20141;-96
2023/09/08 09:23:30;;;;;;;8.00;7.13;;;;;;;24.14;95.36;101601.47;4989684;28;20033;-96
2023/09/08 09:25:57;;;;;;;8.23;7.43;;;;;;;24.08;93.70;101582.84;4988753;28;20336;-96
2023/09/08 09:28:22;;;;;;;10.73;7.20;;;;;;;23.97;92.29;101566.78;4990842;28;20777;-96
2023/09/08 09:30:51;;;;;;;7.75;6.68;;;;;;;24.24;95.36;101574.81;4988248;28;20114;-96
2023/09/08 09:33:17;;;;;;;9.88;7.10;;;;;;;24.32;92.99;101582.19;4993171;28;20046;-96
2023/09/08 09:35:51;;;;;;;12.30;7.00;;;;;;;24.31;94.07;101572.38;4990607;28;20086;-96
2023/09/08 09:38:18;;;;;;;12.38;6.85;;;;;;;24.41;92.77;101568.44;4991990;28;20053;-96
2023/09/08 09:40:45;;;;;;;9.80;6.20;;;;;;;24.50;92.89;101571.88;4992094;28;20066;-96
2023/09/08 09:43:11;;;;;;;9.00;7.20;;;;;;;24.67;92.01;101587.38;4991206;28;20329;-96
2023/09/08 09:45:38;;;;;;;9.02;6.80;;;;;;;24.66;91.68;101563.84;4988538;28;20089;-96
2023/09/08 09:48:05;;;;;;;11.80;7.28;;;;;;;24.92;90.31;101596.50;4990200;28;20019;-96
2023/09/08 09:50:35;;;;;;;7.65;6.90;;;;;;;24.77;89.93;101561.53;5011836;28;20042;-96
2023/09/08 09:53:02;;;;;;;10.15;7.10;;;;;;;25.10;90.71;101601.81;4989758;28;20081;-96
2023/09/08 09:55:28;;;;;;;8.98;7.07;;;;;;;25.07;87.99;101583.28;4995713;28;20026;-95
2023/09/08 09:58:00;;;;;;;8.80;7.23;;;;;;;25.25;88.22;101598.41;4991278;28;20068;-95
2023/09/08 10:00:27;;;;;;;8.13;6.82;;;;;;;25.20;86.29;101579.44;4990059;28;20031;-96
2023/09/08 10:02:55;;;;;;;11.02;6.63;;;;;;;25.52;86.04;101598.13;4988485;28;20031;-96
2023/09/08 10:05:20;;;;;;;9.15;6.60;;;;;;;25.55;83.29;101598.28;4986850;28;20038;-96
2023/09/08 10:07:48;;;;;;;10.67;6.57;;;;;;;25.47;84.20;101565.47;4985905;28;20125;-96
2023/09/08 10:10:15;;;;;;;11.30;6.38;;;;;;;25.61;83.34;101581.56;4988718;28;20673;-96
2023/09/08 10:12:52;;;;;;;9.85;6.22;;;;;;;25.86;85.52;101601.56;4991685;28;20027;-95
2023/09/08 10:15:21;;;;;;;8.48;7.22;;;;;;;25.75;84.94;101565.53;4990965;28;20030;-96
2023/09/08 10:17:53;;;;;;;6.15;5.63;;;;;;;25.84;85.80;101568.97;4992441;28;20018;-96
2023/09/08 10:20:21;;;;;;;8.47;6.50;;;;;;;26.21;81.23;101606.56;4993942;28;20019;-93
2023/09/08 10:22:52;;;;;;;9.00;6.30;;;;;;;26.09;80.29;101579.94;4996081;28;20297;-96
2023/09/08 10:25:21;;;;;;;10.40;5.70;;;;;;;26.10;82.99;101565.06;4997627;28;20047;-96
2023/09/08 10:27:47;;;;;;;11.10;6.65;;;;;;;26.29;79.94;101585.63;4996044;28;20023;-96
2023/09/08 10:30:14;;;;;;;6.85;6.18;;;;;;;26.34;79.32;101565.34;4996387;28;20038;-96
2023/09/08 10:37:50;;;;;;;8.20;6.20;;;;;;;26.67;80.63;101561.56;5143803;23;20138;-96
2023/09/08 10:40:27;;;;;;;7.30;6.55;;;;;;;26.74;80.14;101565.28;4976728;28;20043;-96
2023/09/08 10:45:28;;;;;;;8.50;6.47;;;;;;;26.88;77.51;101555.84;5489815;23;20039;-96
2023/09/08 10:53:16;;;;;;;9.25;6.55;;;;;;;27.18;76.71;101563.72;4984060;23;20047;-96
2023/09/08 10:55:43;;;;;;;10.20;6.10;;;;;;;27.49;76.97;101595.13;4977637;28;20042;-96
2023/09/08 10:58:11;;;;;;;13.90;6.40;;;;;;;27.32;73.74;101560.50;4977651;28;20035;-96
2023/09/08 11:01:07;;;;;;;8.47;6.23;;;;;;;27.44;75.04;101556.84;4978101;28;20460;-96
2023/09/08 11:16:31;;;;;;;8.30;5.90;;;;;;;28.33;69.78;101556.47;4994008;23;20330;-96
2023/09/08 11:18:57;;;;;;;6.32;5.72;;;;;;;28.41;67.79;101564.53;4975395;28;20023;-96
2023/09/08 11:21:22;;;;;;;7.55;6.00;;;;;;;28.47;69.92;101564.25;4976538;28;20027;-96
2023/09/08 11:23:48;;;;;;;8.30;6.70;;;;;;;28.40;68.35;101551.13;4977135;28;20039;-96
2023/09/08 11:26:13;;;;;;;12.02;6.50;;;;;;;28.38;67.88;101558.94;4976516;28;20032;-96
2023/09/08 11:28:41;;;;;;;7.87;5.50;;;;;;;28.54;64.99;101573.44;4976382;28;20023;-96
2023/09/08 11:31:07;;;;;;;7.80;5.78;;;;;;;28.58;65.54;101547.91;4976849;28;20007;-96
2023/09/08 11:33:38;;;;;;;7.40;5.50;;;;;;;28.70;64.16;101553.25;4979347;28;20042;-96
2023/09/08 11:43:52;;;;;;;5.93;5.20;;;;;;;29.05;60.88;101537.75;5221803;23;20083;-96
2023/09/08 12:50:54;;;;;;;9.50;5.25;;;;;;;31.13;51.62;101538.00;5201700;23;20053;-96
2023/09/08 13:01:09;;;;;;;6.30;5.40;;;;;;;31.36;50.15;101528.72;6033257;23;20037;-95
2023/09/08 13:03:40;;;;;;;7.28;5.15;;;;;;;31.50;51.37;101516.94;5233563;23;20035;-96
2023/09/08 13:49:58;;;;;;;10.82;5.80;;;;;;;32.44;46.56;101486.84;5551698;23;20029;-96
2023/09/08 14:00:04;;;;;;;9.68;5.55;;;;;;;32.21;49.13;101492.72;4936643;29;20105;-96
2023/09/08 14:02:29;;;;;;;8.52;6.20;;;;;;;32.46;48.79;101476.97;4940138;29;20087;-96
2023/09/08 14:12:43;;;;;;;9.07;6.40;;;;;;;32.68;47.00;101493.63;5438152;23;20035;-96
2023/09/08 14:20:19;;;;;;;9.48;5.90;;;;;;;32.94;47.76;101472.25;5420711;23;20042;-96
2023/09/08 14:25:18;;;;;;;9.15;6.28;;;;;;;33.01;46.24;101471.44;5096435;23;20135;-96
2023/09/08 14:27:44;;;;;;;9.53;6.63;;;;;;;32.88;45.53;101471.84;5307384;23;20217;-96
2023/09/08 14:32:41;;;;;;;9.30;5.40;;;;;;;32.87;44.77;101466.69;5303871;23;20039;-96
2023/09/08 14:35:06;;;;;;;6.32;5.72;;;;;;;32.88;45.11;101455.19;5028426;23;20050;-96
2023/09/08 14:37:33;;;;;;;6.40;5.67;;;;;;;33.01;46.84;101463.91;5053829;23;21149;-96
2023/09/08 14:39:58;;;;;;;8.20;6.10;;;;;;;32.81;45.22;101465.50;4968413;28;20035;-96